Time;durP1;ratioP1;P1;durP2;ratioP2;P2;SDS_P1;SDS_P2;PMS_P1;PMS_P2;Temp;Humidity;BMP_temperature;BMP_pressure;BME280_temperature;BME280_humidity;BME280_pressure;Samples;Min_cycle;Max_cycle;Signal;HPM_P1;HPM_P2
2022/08/29 00:00:21;;;;;;;32.58;30.60;;;22.00;52.10;;;;;;5033792;28;20021;-77
2022/08/29 00:02:50;;;;;;;32.17;29.92;;;21.90;52.40;;;;;;5034110;28;20090;-77
2022/08/29 00:05:17;;;;;;;32.17;30.27;;;21.90;52.60;;;;;;5050766;28;20028;-77
2022/08/29 00:07:43;;;;;;;32.42;30.55;;;21.90;52.60;;;;;;5050723;28;20029;-77
2022/08/29 00:10:10;;;;;;;32.22;30.45;;;21.90;52.50;;;;;;5033626;28;20051;-77
2022/08/29 00:12:36;;;;;;;31.75;29.75;;;21.90;52.60;;;;;;5034221;28;20496;-77
2022/08/29 00:15:04;;;;;;;31.85;29.95;;;21.90;52.70;;;;;;5050248;28;20033;-77
2022/08/29 00:17:30;;;;;;;32.67;30.63;;;21.90;53.40;;;;;;5050255;28;20524;-77
2022/08/29 00:19:56;;;;;;;32.15;30.35;;;21.90;52.80;;;;;;5050276;28;20088;-77
2022/08/29 00:22:22;;;;;;;33.05;30.95;;;21.90;52.60;;;;;;5051679;28;20405;-77
2022/08/29 00:24:48;;;;;;;33.97;32.10;;;21.80;52.90;;;;;;5049584;28;20036;-77
2022/08/29 00:27:14;;;;;;;33.25;31.35;;;21.80;53.00;;;;;;5033664;28;20029;-77
2022/08/29 00:29:41;;;;;;;33.72;31.92;;;21.80;53.10;;;;;;5033909;28;20029;-77
2022/08/29 00:32:07;;;;;;;34.08;32.17;;;21.70;53.30;;;;;;5049758;28;20032;-77
2022/08/29 00:34:33;;;;;;;34.22;32.33;;;21.60;53.60;;;;;;5033080;28;20036;-77
2022/08/29 00:36:59;;;;;;;34.00;32.00;;;21.60;53.70;;;;;;5033457;28;20040;-77
2022/08/29 00:39:25;;;;;;;34.10;31.92;;;21.60;53.60;;;;;;5032719;28;20037;-77
2022/08/29 00:41:51;;;;;;;32.88;30.90;;;21.70;53.30;;;;;;5051293;28;20036;-77
2022/08/29 00:44:17;;;;;;;34.30;32.42;;;21.70;53.30;;;;;;5061670;28;20044;-77
2022/08/29 00:46:45;;;;;;;33.90;32.00;;;21.60;53.50;;;;;;5055387;28;20047;-77
2022/08/29 00:49:34;;;;;;;32.70;30.90;;;21.60;53.70;;;;;;5049977;28;20033;-77
2022/08/29 00:52:07;;;;;;;32.67;30.67;;;21.60;53.60;;;;;;5019509;28;20474;-77
2022/08/29 00:54:33;;;;;;;33.20;31.23;;;21.50;54.00;;;;;;5016897;28;20064;-77
2022/08/29 00:56:59;;;;;;;34.03;32.13;;;21.50;54.00;;;;;;5016790;28;20443;-77
2022/08/29 00:59:31;;;;;;;34.40;32.15;;;21.50;53.90;;;;;;5033257;28;20033;-77
2022/08/29 01:01:58;;;;;;;35.17;32.97;;;21.40;54.30;;;;;;5033409;28;20620;-77
2022/08/29 01:04:24;;;;;;;37.03;34.83;;;21.40;54.50;;;;;;5049532;28;20036;-77
2022/08/29 01:06:50;;;;;;;38.47;35.72;;;21.30;54.60;;;;;;5049754;28;20029;-77
2022/08/29 01:09:16;;;;;;;38.83;36.00;;;21.20;54.70;;;;;;5049303;28;20029;-77
2022/08/29 01:14:27;;;;;;;36.72;34.25;;;21.20;54.90;;;;;;5056558;28;20520;-78
2022/08/29 01:16:56;;;;;;;35.50;33.40;;;21.20;55.10;;;;;;5048936;28;20482;-78
2022/08/29 01:19:26;;;;;;;34.10;31.88;;;21.10;55.40;;;;;;5049491;28;20040;-77
2022/08/29 01:22:18;;;;;;;33.73;31.30;;;21.00;55.80;;;;;;5032977;28;20485;-77
2022/08/29 01:24:49;;;;;;;34.05;32.05;;;20.90;55.90;;;;;;5030145;28;20393;-77
2022/08/29 01:27:23;;;;;;;35.25;32.85;;;21.00;55.70;;;;;;4992748;28;20517;-77
2022/08/29 01:29:49;;;;;;;34.63;32.63;;;21.10;55.60;;;;;;4976792;28;20034;-77
2022/08/29 01:32:15;;;;;;;35.75;33.28;;;21.00;55.90;;;;;;5009769;28;20037;-77
2022/08/29 01:34:42;;;;;;;38.85;36.75;;;21.00;55.90;;;;;;5012183;28;20466;-77
2022/08/29 01:37:10;;;;;;;43.00;40.50;;;20.90;56.10;;;;;;5011729;28;20545;-77
2022/08/29 01:39:38;;;;;;;40.65;38.45;;;20.90;56.10;;;;;;5037355;28;20025;-77
2022/08/29 01:42:19;;;;;;;44.72;42.33;;;20.90;56.10;;;;;;5052156;28;20044;-77
2022/08/29 01:44:49;;;;;;;48.63;45.85;;;20.80;56.50;;;;;;5026416;28;20466;-77
2022/08/29 01:47:15;;;;;;;50.50;47.10;;;20.80;56.70;;;;;;5031538;28;20037;-77
2022/08/29 01:49:41;;;;;;;48.72;45.90;;;20.70;57.00;;;;;;5032205;28;20049;-77
2022/08/29 01:52:08;;;;;;;48.97;45.60;;;20.70;57.00;;;;;;5031803;28;20037;-77
2022/08/29 01:54:34;;;;;;;45.35;42.85;;;20.60;57.00;;;;;;5031900;28;20045;-77
2022/08/29 01:57:00;;;;;;;44.35;41.47;;;20.50;57.40;;;;;;5032112;28;20037;-77
2022/08/29 01:59:27;;;;;;;42.70;40.17;;;20.50;57.40;;;;;;5032097;28;20033;-77
2022/08/29 02:01:57;;;;;;;40.60;38.13;;;20.50;57.70;;;;;;5031098;28;20036;-77
2022/08/29 02:04:23;;;;;;;37.97;35.70;;;20.40;57.80;;;;;;5016949;28;20030;-77
2022/08/29 02:06:49;;;;;;;39.03;36.80;;;20.40;57.80;;;;;;4999959;28;20498;-77
2022/08/29 02:09:16;;;;;;;37.50;35.50;;;20.50;57.80;;;;;;5016609;28;20041;-77
2022/08/29 02:11:43;;;;;;;37.00;34.97;;;20.50;57.70;;;;;;5000503;28;20431;-77
2022/08/29 02:14:09;;;;;;;32.85;30.83;;;20.60;57.40;;;;;;5016331;28;20037;-77
2022/08/29 02:16:35;;;;;;;32.05;30.13;;;20.50;57.60;;;;;;5015848;28;20037;-77
2022/08/29 02:19:01;;;;;;;32.63;30.63;;;20.50;58.50;;;;;;5016113;28;20413;-77
2022/08/29 02:21:28;;;;;;;32.60;30.70;;;20.40;57.90;;;;;;5032331;28;20041;-77
2022/08/29 02:23:56;;;;;;;33.63;31.23;;;20.50;57.90;;;;;;5016273;28;20048;-77
2022/08/29 02:26:22;;;;;;;32.95;30.85;;;20.40;58.00;;;;;;5046486;28;20025;-77
2022/08/29 02:28:50;;;;;;;30.55;28.85;;;20.50;57.80;;;;;;5052456;28;20033;-77
2022/08/29 02:31:20;;;;;;;33.13;30.85;;;20.70;57.40;;;;;;5052002;28;20044;-78
2022/08/29 02:33:46;;;;;;;32.28;30.15;;;20.80;57.10;;;;;;5052677;28;20493;-77
2022/08/29 02:36:12;;;;;;;32.22;30.15;;;20.70;57.20;;;;;;5053060;28;20048;-77
2022/08/29 02:38:38;;;;;;;31.50;29.52;;;20.60;57.50;;;;;;5052264;28;20040;-77
2022/08/29 02:41:05;;;;;;;31.45;29.55;;;20.50;58.00;;;;;;5052256;28;20489;-77
2022/08/29 02:43:31;;;;;;;30.92;29.13;;;20.40;58.30;;;;;;5053301;28;20032;-77
2022/08/29 02:45:57;;;;;;;31.83;29.92;;;20.30;58.60;;;;;;5058000;28;20036;-77
2022/08/29 02:48:24;;;;;;;31.42;29.60;;;20.30;58.60;;;;;;5035305;28;20045;-77
2022/08/29 02:50:52;;;;;;;31.25;29.35;;;20.30;58.70;;;;;;5051865;28;20056;-77
2022/08/29 02:53:20;;;;;;;31.00;29.10;;;20.20;58.90;;;;;;5052104;28;20109;-77
2022/08/29 02:55:46;;;;;;;29.90;28.10;;;20.20;59.10;;;;;;5019060;28;20116;-77
2022/08/29 02:58:13;;;;;;;30.83;28.90;;;20.00;59.40;;;;;;5052005;28;20048;-77
2022/08/29 03:00:39;;;;;;;36.42;34.33;;;19.90;59.70;;;;;;5051611;28;20040;-77
2022/08/29 03:03:05;;;;;;;36.58;34.47;;;19.90;59.80;;;;;;5051968;28;20041;-77
2022/08/29 03:05:33;;;;;;;36.38;34.38;;;19.90;59.70;;;;;;5050994;28;20041;-77
2022/08/29 03:08:00;;;;;;;34.55;32.22;;;19.90;59.80;;;;;;5051762;28;20033;-77
2022/08/29 03:10:27;;;;;;;37.33;35.13;;;19.90;60.00;;;;;;5051906;28;20052;-77
2022/08/29 03:12:53;;;;;;;37.08;34.85;;;19.90;59.80;;;;;;5051603;28;20025;-77
2022/08/29 03:15:19;;;;;;;36.33;33.80;;;20.00;59.70;;;;;;5051200;28;20033;-77
2022/08/29 03:17:45;;;;;;;36.45;34.10;;;20.10;59.40;;;;;;5034877;28;20063;-77
2022/08/29 03:20:12;;;;;;;35.13;33.28;;;20.10;59.20;;;;;;5051207;28;20374;-77
2022/08/29 03:22:38;;;;;;;34.35;32.35;;;20.10;59.30;;;;;;5051546;28;20025;-77
2022/08/29 03:25:05;;;;;;;33.95;31.85;;;20.10;59.50;;;;;;5051459;28;20017;-77
2022/08/29 03:27:31;;;;;;;34.10;32.22;;;20.00;59.60;;;;;;5035004;28;20036;-77
2022/08/29 03:29:57;;;;;;;38.30;36.10;;;20.00;59.80;;;;;;5018404;28;20481;-77
2022/08/29 03:32:24;;;;;;;36.10;33.90;;;19.90;59.90;;;;;;5034435;28;20489;-77
2022/08/29 03:34:50;;;;;;;38.40;35.97;;;20.00;59.80;;;;;;5034583;28;20033;-77
2022/08/29 03:37:16;;;;;;;36.95;34.95;;;20.00;59.80;;;;;;5034601;28;20519;-77
2022/08/29 03:39:43;;;;;;;39.95;37.47;;;20.10;59.60;;;;;;5034651;28;20029;-77
2022/08/29 03:42:09;;;;;;;37.95;35.83;;;20.00;59.60;;;;;;5067713;28;20035;-77
2022/08/29 03:44:36;;;;;;;36.17;34.03;;;20.00;59.80;;;;;;5052402;28;20028;-77
2022/08/29 03:47:02;;;;;;;38.80;36.40;;;20.00;59.60;;;;;;5039379;28;20029;-77
2022/08/29 03:49:28;;;;;;;37.58;35.42;;;19.90;60.00;;;;;;5034488;28;20036;-77
2022/08/29 03:51:54;;;;;;;39.50;37.00;;;19.80;60.30;;;;;;5051239;28;20033;-77
2022/08/29 03:54:20;;;;;;;42.83;40.22;;;19.80;60.30;;;;;;5034411;28;20033;-77
2022/08/29 03:56:46;;;;;;;43.17;40.75;;;19.80;60.50;;;;;;5050856;28;20039;-77
2022/08/29 03:59:12;;;;;;;43.90;41.17;;;19.70;60.70;;;;;;5034269;28;20048;-77
2022/08/29 04:01:39;;;;;;;42.88;40.40;;;19.70;60.50;;;;;;5015992;28;20048;-77
2022/08/29 04:04:05;;;;;;;44.55;41.47;;;19.70;60.70;;;;;;5050778;28;20021;-77
2022/08/29 04:06:32;;;;;;;43.42;40.83;;;19.70;60.80;;;;;;5050852;28;20029;-77
2022/08/29 04:08:59;;;;;;;43.33;41.00;;;19.70;60.80;;;;;;5033941;28;20040;-77
2022/08/29 04:11:25;;;;;;;43.38;40.55;;;19.70;60.80;;;;;;5050641;28;20033;-77
2022/08/29 04:13:51;;;;;;;43.10;40.40;;;19.80;60.60;;;;;;5033874;28;20052;-77
2022/08/29 04:16:22;;;;;;;40.88;38.33;;;19.80;60.40;;;;;;5049707;28;20582;-77
2022/08/29 04:18:48;;;;;;;43.25;40.50;;;19.90;60.30;;;;;;5033500;28;20052;-77
2022/08/29 04:21:15;;;;;;;41.17;38.50;;;19.70;60.60;;;;;;5050639;28;20036;-77
2022/08/29 04:23:41;;;;;;;43.15;40.50;;;19.70;60.80;;;;;;5050123;28;20041;-77
2022/08/29 04:26:14;;;;;;;42.95;40.20;;;19.60;61.00;;;;;;5033426;28;20478;-77
2022/08/29 04:28:40;;;;;;;39.00;36.40;;;19.60;61.30;;;;;;5033476;28;20531;-77
2022/08/29 04:31:11;;;;;;;39.20;36.97;;;19.50;61.40;;;;;;5049348;28;20032;-77
2022/08/29 04:33:37;;;;;;;37.15;34.95;;;19.50;61.60;;;;;;5050254;28;20036;-77
2022/08/29 04:36:04;;;;;;;32.13;30.23;;;19.40;61.70;;;;;;5050185;28;20025;-77
2022/08/29 04:38:31;;;;;;;32.30;30.30;;;19.30;62.20;;;;;;5050190;28;20168;-77
2022/08/29 04:40:57;;;;;;;34.60;32.35;;;19.30;62.30;;;;;;5049830;28;20466;-77
2022/08/29 04:43:23;;;;;;;32.05;30.15;;;19.30;62.50;;;;;;5049890;28;20501;-77
2022/08/29 04:45:54;;;;;;;33.85;31.75;;;19.20;62.30;;;;;;5055257;28;20025;-77
2022/08/29 04:48:20;;;;;;;32.95;30.80;;;19.20;62.30;;;;;;5033351;28;20167;-77
2022/08/29 04:50:53;;;;;;;34.00;31.88;;;19.20;62.50;;;;;;5049906;28;20028;-77
2022/08/29 04:53:19;;;;;;;33.90;31.80;;;19.10;62.80;;;;;;5033398;28;20025;-77
2022/08/29 04:55:45;;;;;;;35.75;33.45;;;19.20;62.50;;;;;;5016909;28;20036;-77
2022/08/29 04:58:11;;;;;;;37.88;35.30;;;19.20;62.50;;;;;;5047562;28;20048;-77
2022/08/29 05:00:37;;;;;;;37.50;35.35;;;19.10;62.80;;;;;;5032509;28;20426;-77
2022/08/29 05:03:03;;;;;;;37.95;35.45;;;19.10;63.10;;;;;;5033645;28;20047;-77
2022/08/29 05:05:30;;;;;;;35.97;33.53;;;19.00;63.10;;;;;;5049849;28;20028;-77
2022/08/29 05:07:56;;;;;;;33.10;30.90;;;19.00;63.50;;;;;;5049732;28;20029;-77
2022/08/29 05:10:22;;;;;;;33.13;31.02;;;18.90;63.80;;;;;;5049545;28;20367;-77
2022/08/29 05:12:48;;;;;;;36.00;33.75;;;18.80;63.90;;;;;;5049578;28;20386;-77
2022/08/29 05:15:15;;;;;;;36.33;34.13;;;18.80;63.90;;;;;;5048738;28;20029;-77
2022/08/29 05:17:41;;;;;;;37.80;35.50;;;18.80;63.90;;;;;;5032441;28;20040;-77
2022/08/29 05:20:07;;;;;;;36.08;33.78;;;18.80;63.90;;;;;;5033272;28;20044;-77
2022/08/29 05:22:33;;;;;;;37.30;35.20;;;18.80;63.50;;;;;;5033039;28;20033;-77
2022/08/29 05:25:00;;;;;;;35.95;33.75;;;18.90;63.50;;;;;;5044145;28;20028;-77
2022/08/29 05:27:26;;;;;;;35.53;33.50;;;18.80;63.60;;;;;;4993118;28;20037;-77
2022/08/29 05:29:53;;;;;;;34.58;32.25;;;18.70;64.00;;;;;;5025947;28;20470;-77
2022/08/29 05:32:20;;;;;;;31.85;29.75;;;18.70;63.80;;;;;;5007624;28;20335;-77
2022/08/29 05:34:47;;;;;;;35.70;33.50;;;18.80;63.70;;;;;;5042445;28;20030;-77
2022/08/29 05:37:18;;;;;;;34.05;31.65;;;18.80;63.40;;;;;;5026079;28;20038;-77
2022/08/29 05:39:44;;;;;;;29.92;28.15;;;18.80;63.30;;;;;;5047134;28;20037;-77
2022/08/29 05:42:11;;;;;;;31.77;29.77;;;18.90;62.90;;;;;;5029036;28;20037;-77
2022/08/29 05:44:37;;;;;;;31.92;29.60;;;18.90;63.10;;;;;;5029138;28;20029;-77
2022/08/29 05:47:05;;;;;;;28.63;26.63;;;18.80;63.10;;;;;;5034859;28;20045;-77
2022/08/29 05:49:31;;;;;;;30.67;28.77;;;18.80;62.90;;;;;;5016178;28;20037;-77
2022/08/29 05:51:59;;;;;;;30.35;28.45;;;18.80;63.20;;;;;;5015691;28;20037;-77
2022/08/29 05:54:25;;;;;;;31.65;29.17;;;18.70;63.40;;;;;;5049241;28;20017;-77
2022/08/29 05:56:51;;;;;;;29.52;27.55;;;18.70;63.70;;;;;;5032558;28;20037;-77
2022/08/29 05:59:18;;;;;;;29.98;28.05;;;18.70;63.50;;;;;;5048777;28;20037;-77
2022/08/29 06:01:45;;;;;;;29.67;27.85;;;18.70;63.30;;;;;;5048673;28;20021;-77
2022/08/29 06:04:12;;;;;;;29.67;27.77;;;18.70;63.20;;;;;;5049171;28;20021;-77
2022/08/29 06:06:38;;;;;;;31.85;29.77;;;18.70;63.10;;;;;;5049064;28;20029;-77
2022/08/29 06:09:07;;;;;;;28.08;26.38;;;18.70;62.80;;;;;;5049026;28;20033;-77
2022/08/29 06:11:33;;;;;;;32.20;30.42;;;18.70;62.80;;;;;;5048818;28;20029;-77
2022/08/29 06:14:00;;;;;;;34.47;32.47;;;18.90;62.20;;;;;;5048622;28;20027;-77
2022/08/29 06:16:27;;;;;;;27.90;25.88;;;18.80;62.20;;;;;;5048592;28;20477;-77
2022/08/29 06:18:53;;;;;;;33.88;31.40;;;18.80;62.50;;;;;;5031701;28;20063;-77
2022/08/29 06:21:19;;;;;;;32.15;29.90;;;18.90;62.10;;;;;;5032102;28;20417;-77
2022/08/29 06:23:46;;;;;;;33.05;30.83;;;18.90;62.30;;;;;;5033528;28;20037;-77
2022/08/29 06:26:12;;;;;;;28.58;26.13;;;18.90;62.20;;;;;;5052463;28;20021;-77
2022/08/29 06:28:40;;;;;;;32.63;30.27;;;19.10;61.60;;;;;;5052183;28;20025;-77
2022/08/29 06:31:07;;;;;;;34.00;31.33;;;19.20;61.00;;;;;;5033267;28;20025;-77
2022/08/29 06:33:34;;;;;;;30.08;27.50;;;19.50;60.90;;;;;;5052466;28;20509;-77
2022/08/29 06:36:00;;;;;;;34.20;31.08;;;19.80;60.10;;;;;;5052479;28;20037;-77
2022/08/29 06:38:26;;;;;;;31.90;29.65;;;20.00;59.00;;;;;;5035444;28;20049;-77
2022/08/29 06:40:52;;;;;;;31.20;28.92;;;20.20;58.60;;;;;;5037625;28;20025;-77
2022/08/29 06:43:18;;;;;;;27.40;25.67;;;20.30;57.90;;;;;;5015246;28;20045;-78
2022/08/29 06:45:44;;;;;;;28.95;26.90;;;20.30;58.20;;;;;;5026505;28;20028;-77
2022/08/29 06:48:10;;;;;;;29.90;27.92;;;20.40;57.80;;;;;;5019174;28;20044;-77
2022/08/29 06:50:37;;;;;;;30.92;28.40;;;20.50;57.60;;;;;;5052387;28;20036;-77
2022/08/29 06:53:04;;;;;;;29.23;27.35;;;20.70;57.00;;;;;;5019015;28;20056;-77
2022/08/29 06:55:30;;;;;;;28.27;26.50;;;20.80;56.80;;;;;;5035184;28;20025;-77
2022/08/29 06:57:56;;;;;;;26.83;25.02;;;20.80;56.30;;;;;;5035541;28;20040;-77
2022/08/29 07:00:22;;;;;;;30.33;28.42;;;20.90;56.00;;;;;;5052782;28;20033;-77
2022/08/29 07:02:50;;;;;;;29.75;28.13;;;21.10;56.10;;;;;;5051842;28;20497;-77
2022/08/29 07:05:16;;;;;;;36.33;33.92;;;21.20;55.60;;;;;;5051864;28;20462;-77
2022/08/29 07:07:42;;;;;;;37.42;35.22;;;21.30;55.40;;;;;;5052183;28;20024;-77
2022/08/29 07:10:11;;;;;;;35.67;33.58;;;21.50;55.10;;;;;;5034775;28;20544;-77
2022/08/29 07:12:37;;;;;;;35.95;33.95;;;21.60;54.50;;;;;;5035252;28;20037;-77
2022/08/29 07:15:04;;;;;;;34.33;32.53;;;21.80;54.40;;;;;;5051199;28;20032;-77
2022/08/29 07:17:30;;;;;;;35.00;32.72;;;21.90;53.90;;;;;;5051565;28;20033;-77
2022/08/29 07:19:56;;;;;;;43.45;40.08;;;21.90;53.60;;;;;;5052971;28;20044;-77
2022/08/29 07:22:22;;;;;;;34.35;32.00;;;21.80;53.60;;;;;;5034981;28;20033;-77
2022/08/29 07:24:48;;;;;;;34.17;31.90;;;21.90;53.60;;;;;;5051103;28;20036;-77
2022/08/29 07:27:14;;;;;;;33.08;30.90;;;21.90;53.60;;;;;;5052003;28;20038;-77
2022/08/29 07:29:40;;;;;;;33.08;30.88;;;22.10;53.30;;;;;;5051275;28;20025;-77
2022/08/29 07:32:07;;;;;;;31.75;29.67;;;22.20;53.10;;;;;;5050826;28;20025;-77
2022/08/29 07:34:33;;;;;;;31.83;29.65;;;22.20;53.00;;;;;;5050865;28;20033;-78
2022/08/29 07:36:59;;;;;;;36.05;33.17;;;22.30;52.60;;;;;;5034181;28;20040;-77
2022/08/29 07:39:25;;;;;;;32.42;30.15;;;22.50;52.60;;;;;;5034415;28;20045;-78
2022/08/29 07:41:51;;;;;;;33.15;30.88;;;22.40;52.20;;;;;;5067994;28;20021;-77
2022/08/29 07:44:17;;;;;;;34.08;31.60;;;22.50;52.40;;;;;;5046012;28;20033;-78
2022/08/29 07:46:43;;;;;;;34.40;32.15;;;22.40;52.20;;;;;;5039531;28;20056;-77
2022/08/29 07:49:11;;;;;;;32.30;30.55;;;22.60;52.40;;;;;;5034798;28;20041;-78
2022/08/29 07:51:37;;;;;;;32.38;30.13;;;22.70;52.10;;;;;;5034770;28;20025;-78
2022/08/29 07:54:04;;;;;;;34.60;32.30;;;22.70;52.10;;;;;;5034190;28;20025;-78
2022/08/29 07:56:32;;;;;;;38.75;36.05;;;22.80;51.80;;;;;;5017957;28;20044;-78
2022/08/29 07:58:59;;;;;;;33.80;31.65;;;23.00;51.50;;;;;;5034336;28;20025;-78
2022/08/29 08:01:26;;;;;;;38.55;36.35;;;23.10;51.80;;;;;;5017588;28;20057;-78
2022/08/29 08:03:52;;;;;;;34.35;32.35;;;23.20;51.00;;;;;;5050954;28;20025;-78
2022/08/29 08:06:20;;;;;;;32.47;30.27;;;23.30;50.80;;;;;;5050591;28;20036;-78
2022/08/29 08:08:46;;;;;;;34.25;31.95;;;23.30;51.00;;;;;;5033690;28;20572;-78
2022/08/29 08:11:12;;;;;;;35.67;33.50;;;23.50;50.70;;;;;;5050693;28;20033;-78
2022/08/29 08:13:39;;;;;;;33.35;31.20;;;23.60;50.30;;;;;;5050285;28;20462;-78
2022/08/29 08:16:06;;;;;;;44.83;42.42;;;23.60;50.20;;;;;;5050304;28;20029;-78
2022/08/29 08:18:34;;;;;;;38.00;35.65;;;23.60;50.10;;;;;;5034017;28;20391;-78
2022/08/29 08:21:00;;;;;;;37.42;35.10;;;23.80;50.30;;;;;;5049892;28;20037;-78
2022/08/29 08:23:26;;;;;;;38.13;36.03;;;24.00;49.60;;;;;;5050168;28;20040;-78
2022/08/29 08:25:52;;;;;;;36.53;34.10;;;24.10;49.30;;;;;;5050088;28;20058;-78
2022/08/29 08:28:18;;;;;;;38.20;35.83;;;24.10;49.30;;;;;;5033904;28;20029;-78
2022/08/29 08:30:44;;;;;;;37.97;35.88;;;24.20;49.10;;;;;;5033214;28;20029;-78
2022/08/29 08:33:10;;;;;;;39.80;37.50;;;24.30;48.90;;;;;;5033680;28;20080;-78
2022/08/29 08:35:37;;;;;;;40.28;37.78;;;24.50;48.90;;;;;;5032995;28;20048;-78
2022/08/29 08:38:04;;;;;;;1999.90;999.90;;;24.70;49.00;;;;;;5033503;28;20374;-78
2022/08/29 08:40:30;;;;;;;38.88;36.38;;;24.90;48.30;;;;;;5033466;28;20449;-78
2022/08/29 08:42:59;;;;;;;39.72;37.25;;;24.90;48.10;;;;;;5033306;28;20036;-78
2022/08/29 08:45:33;;;;;;;40.90;38.55;;;24.90;48.10;;;;;;5022086;28;20029;-78
2022/08/29 08:48:23;;;;;;;35.25;33.35;;;25.10;48.00;;;;;;5051463;28;20045;-78
2022/08/29 08:50:57;;;;;;;39.67;37.17;;;25.20;47.40;;;;;;5019287;28;20131;-78
2022/08/29 08:53:31;;;;;;;37.00;34.97;;;25.20;47.90;;;;;;5033526;28;20033;-78
2022/08/29 08:56:00;;;;;;;38.15;36.00;;;25.20;47.40;;;;;;5051101;28;20381;-78
2022/08/29 08:58:35;;;;;;;40.03;37.53;;;25.30;47.70;;;;;;5033731;28;20029;-78
2022/08/29 09:01:33;;;;;;;37.25;35.17;;;25.50;47.30;;;;;;5033289;28;20381;-78
2022/08/29 09:04:24;;;;;;;37.35;35.17;;;25.60;46.90;;;;;;5033412;28;20049;-78
2022/08/29 09:07:05;;;;;;;1999.90;999.90;;;25.50;47.20;;;;;;5050677;28;20056;-78
2022/08/29 09:09:36;;;;;;;;;;;25.70;47.20;;;;;;5051447;28;20047;-78
2022/08/29 09:12:18;;;;;;;1999.90;999.90;;;25.80;46.80;;;;;;5033011;28;20392;-78
2022/08/29 09:14:59;;;;;;;37.80;35.83;;;25.90;46.50;;;;;;5050869;28;20037;-78
2022/08/29 09:17:42;;;;;;;1999.90;999.90;;;26.10;46.20;;;;;;5048956;28;20374;-79
2022/08/29 09:20:17;;;;;;;1999.90;999.90;;;26.20;46.10;;;;;;5032550;28;20059;-78
2022/08/29 09:23:14;;;;;;;1999.90;999.90;;;26.30;45.90;;;;;;5049290;28;20028;-79
2022/08/29 09:25:40;;;;;;;1999.90;999.90;;;26.50;45.70;;;;;;5026490;28;20048;-78
2022/08/29 09:28:07;;;;;;;1999.90;999.90;;;26.60;45.50;;;;;;5013196;28;20479;-78
2022/08/29 09:30:35;;;;;;;1999.90;999.90;;;26.70;44.90;;;;;;5033222;28;20036;-78
2022/08/29 09:33:11;;;;;;;1999.90;999.90;;;26.90;45.00;;;;;;5049405;28;20033;-78
2022/08/29 09:35:49;;;;;;;1999.90;999.90;;;27.00;44.60;;;;;;5032914;28;20048;-78
2022/08/29 09:38:20;;;;;;;1999.90;999.90;;;27.10;44.70;;;;;;5032883;28;20021;-79
2022/08/29 09:40:54;;;;;;;1999.90;999.90;;;27.30;44.60;;;;;;5048993;28;20037;-78
2022/08/29 09:43:27;;;;;;;1999.90;999.90;;;27.40;44.50;;;;;;5066534;28;20032;-78
2022/08/29 09:46:24;;;;;;;1999.90;999.90;;;27.40;44.50;;;;;;5067793;28;20028;-79
2022/08/29 09:49:13;;;;;;;1999.90;999.90;;;27.60;44.40;;;;;;5050379;28;20044;-79
2022/08/29 09:51:42;;;;;;;1999.90;999.90;;;27.80;44.80;;;;;;5016600;28;20587;-78
2022/08/29 09:54:27;;;;;;;1999.90;999.90;;;28.10;44.40;;;;;;5032929;28;20017;-79
2022/08/29 09:56:54;;;;;;;1999.90;999.90;;;28.40;42.80;;;;;;5033106;28;20029;-78
2022/08/29 09:59:29;;;;;;;1999.90;999.90;;;28.40;42.90;;;;;;5034603;28;20056;-78
2022/08/29 10:02:24;;;;;;;1999.90;999.90;;;28.20;43.10;;;;;;5036758;28;20037;-78
2022/08/29 10:05:02;;;;;;;1999.90;999.90;;;28.30;43.20;;;;;;5052730;28;20036;-78
2022/08/29 10:07:30;;;;;;;1999.90;999.90;;;28.40;43.60;;;;;;5053206;28;20087;-78
2022/08/29 10:10:11;;;;;;;1999.90;999.90;;;28.50;42.90;;;;;;5036379;28;20048;-78
2022/08/29 10:12:58;;;;;;;1999.90;999.90;;;28.60;42.60;;;;;;5052756;28;20044;-78
2022/08/29 10:15:31;;;;;;;1999.90;999.90;;;28.80;42.20;;;;;;5052510;28;20386;-79
2022/08/29 10:18:32;;;;;;;1999.90;999.90;;;28.80;42.50;;;;;;5052581;28;20388;-79
2022/08/29 10:21:23;;;;;;;1999.90;999.90;;;28.70;42.20;;;;;;5044434;28;20453;-78
2022/08/29 10:23:57;;;;;;;1999.90;999.90;;;28.70;42.80;;;;;;5018148;28;20112;-78
2022/08/29 10:26:51;;;;;;;1999.90;999.90;;;28.70;42.90;;;;;;5001244;28;20056;-78
2022/08/29 10:29:26;;;;;;;1999.90;999.90;;;28.60;42.60;;;;;;5009232;28;20049;-78
2022/08/29 10:31:58;;;;;;;1999.90;999.90;;;28.70;42.80;;;;;;5040829;28;20037;-78
2022/08/29 10:34:31;;;;;;;1999.90;999.90;;;28.70;42.80;;;;;;5050968;28;20033;-79
2022/08/29 10:37:00;;;;;;;1999.90;999.90;;;28.80;42.60;;;;;;5051330;28;20033;-78
2022/08/29 10:39:42;;;;;;;1999.90;999.90;;;28.90;43.00;;;;;;5050728;28;20060;-79
2022/08/29 10:42:14;;;;;;;1999.90;999.90;;;29.30;42.10;;;;;;5050729;28;20033;-79
2022/08/29 10:45:04;;;;;;;1999.90;999.90;;;29.40;42.20;;;;;;5050146;28;20048;-79
2022/08/29 10:47:55;;;;;;;1999.90;999.90;;;29.40;41.80;;;;;;5032864;28;20045;-79
2022/08/29 10:50:35;;;;;;;1999.90;999.90;;;29.40;42.00;;;;;;5034258;28;20040;-79
2022/08/29 10:53:20;;;;;;;1999.90;999.90;;;29.30;41.90;;;;;;5017361;28;20095;-79
2022/08/29 10:55:58;;;;;;;1999.90;999.90;;;29.40;41.90;;;;;;5034219;28;20036;-79
2022/08/29 10:58:36;;;;;;;1999.90;999.90;;;29.50;42.40;;;;;;5030873;28;20425;-78
2022/08/29 11:01:22;;;;;;;1999.90;999.90;;;29.50;42.20;;;;;;5051231;28;20044;-78
2022/08/29 11:04:17;;;;;;;1999.90;999.90;;;29.40;42.50;;;;;;5035350;28;20037;-78
2022/08/29 11:07:00;;;;;;;1999.90;999.90;;;29.40;42.50;;;;;;5035329;28;20041;-78
2022/08/29 11:09:36;;;;;;;1999.90;999.90;;;29.50;42.40;;;;;;5051718;28;20028;-78
2022/08/29 11:12:11;;;;;;;1999.90;999.90;;;29.60;42.70;;;;;;5051956;28;20037;-79
2022/08/29 11:14:41;;;;;;;1999.90;999.90;;;29.80;42.10;;;;;;5034768;28;20367;-78
2022/08/29 11:17:10;;;;;;;1999.90;999.90;;;30.00;42.00;;;;;;5034179;28;20503;-79
2022/08/29 11:20:10;;;;;;;1999.90;999.90;;;30.00;42.00;;;;;;5034915;28;20055;-79
2022/08/29 11:22:49;;;;;;;1999.90;999.90;;;29.80;42.20;;;;;;5051511;28;20045;-78
2022/08/29 11:25:17;;;;;;;1999.90;999.90;;;29.60;42.50;;;;;;5031360;28;20038;-78
2022/08/29 11:28:17;;;;;;;1999.90;999.90;;;29.70;42.30;;;;;;5031593;28;20474;-78
2022/08/29 11:31:05;;;;;;;1999.90;999.90;;;29.90;42.20;;;;;;5027880;28;20025;-79
2022/08/29 11:33:38;;;;;;;1999.90;999.90;;;30.10;41.90;;;;;;5011601;28;20037;-79
2022/08/29 11:36:26;;;;;;;1999.90;999.90;;;30.20;41.70;;;;;;5027902;28;20078;-79
2022/08/29 11:39:08;;;;;;;1999.90;999.90;;;30.20;41.60;;;;;;5028017;28;20045;-79
2022/08/29 11:41:35;;;;;;;1999.90;999.90;;;30.20;41.30;;;;;;5012581;28;20038;-78
2022/08/29 11:44:25;;;;;;;1999.90;999.90;;;30.20;41.30;;;;;;5001059;28;20493;-79
2022/08/29 11:46:52;;;;;;;1999.90;999.90;;;30.30;41.30;;;;;;5051803;28;20037;-78
2022/08/29 11:49:35;;;;;;;1999.90;999.90;;;30.20;41.10;;;;;;5017860;28;20036;-79
2022/08/29 11:52:07;;;;;;;1999.90;999.90;;;30.40;41.30;;;;;;5034986;28;20036;-78
2022/08/29 11:54:33;;;;;;;1999.90;999.90;;;30.60;40.80;;;;;;5052161;28;20033;-79
2022/08/29 11:56:59;;;;;;;1999.90;999.90;;;30.70;40.40;;;;;;5052178;28;20189;-79
2022/08/29 11:59:47;;;;;;;1999.90;999.90;;;30.70;40.30;;;;;;5050031;28;20040;-78
2022/08/29 12:02:31;;;;;;;1999.90;999.90;;;30.50;40.50;;;;;;5051375;28;20398;-79
2022/08/29 12:05:07;;;;;;;1999.90;999.90;;;30.50;40.00;;;;;;5050724;28;20044;-78
2022/08/29 12:07:36;;;;;;;1999.90;999.90;;;30.60;39.90;;;;;;5050542;28;20041;-79
2022/08/29 12:10:05;;;;;;;1999.90;999.90;;;30.80;40.20;;;;;;5034093;28;20033;-79
2022/08/29 12:12:46;;;;;;;1999.90;999.90;;;30.90;39.70;;;;;;5050790;28;20033;-79
2022/08/29 12:15:33;;;;;;;1999.90;999.90;;;30.70;39.60;;;;;;5049945;28;20481;-79
2022/08/29 12:18:11;;;;;;;1999.90;999.90;;;30.80;39.50;;;;;;5051761;28;20025;-79
2022/08/29 12:20:43;;;;;;;1999.90;999.90;;;30.90;39.40;;;;;;5051379;28;20044;-79
2022/08/29 12:23:12;;;;;;;1999.90;999.90;;;31.00;39.80;;;;;;5050387;28;20025;-79
2022/08/29 12:25:53;;;;;;;1999.90;999.90;;;31.10;39.40;;;;;;5051693;28;20041;-79
2022/08/29 12:28:22;;;;;;;1999.90;999.90;;;31.10;38.40;;;;;;5034177;28;20040;-78
2022/08/29 12:30:49;;;;;;;1999.90;999.90;;;31.20;37.70;;;;;;5050785;28;20485;-79
2022/08/29 12:33:34;;;;;;;1999.90;999.90;;;31.20;38.50;;;;;;5033221;28;20043;-78
2022/08/29 12:36:07;;;;;;;1999.90;999.90;;;31.30;38.50;;;;;;5051297;28;20033;-78
2022/08/29 12:38:52;;;;;;;1999.90;999.90;;;31.20;37.60;;;;;;5033470;28;20040;-79